EGAC/BHD METAR and TAF weather

Enter ICAO airport designator
Station Type Date Time Source
EGAC METAR 2019/10/18 10:50 UTC NOAA

EGAC 181050Z AUTO 01005KT 350V050 9999 SCT024/// BKN030/// 11/09 Q0992


Station Type Date Time Source
EGAC Decoded METAR 2019/10/18 10:50 UTC NOAA

Belfast / Harbour, United Kingdom (EGAC) 54-36N 005-53W 0M
Oct 18, 2019 - 06:50 AM EDT / 2019.10.18 1050 UTC
Wind: from the N (010 degrees) at 6 MPH (5 KT) (direction variable):0
Visibility: greater than 7 mile(s):0
Sky conditions: mostly cloudy
Temperature: 51 F (11 C)
Dew Point: 48 F (9 C)
Relative Humidity: 87%
Pressure (altimeter): 29.29 in. Hg (0992 hPa)
ob: EGAC 181050Z AUTO 01005KT 350V050 9999 SCT024/// BKN030/// 11/09 Q0992
cycle: 11

Station Type Date Time Source
EGAC TAF UTC NOAA

Error!

Example: see airport list